Time;durP1;ratioP1;P1;durP2;ratioP2;P2;SDS_P1;SDS_P2;PMS_P1;PMS_P2;Temp;Humidity;BMP_temperature;BMP_pressure;BME280_temperature;BME280_humidity;BME280_pressure;Samples;Min_cycle;Max_cycle;Signal;HPM_P1;HPM_P2
2023/11/19 00:01:00;;;;;;;7.20;5.75;;;21.40;90.70;;;;;;5019638;28;20454;-68
2023/11/19 00:03:26;;;;;;;5.90;5.18;;;21.40;90.70;;;;;;5022816;28;20208;-67
2023/11/19 00:05:55;;;;;;;5.67;4.90;;;21.40;90.70;;;;;;5022207;28;20214;-66
2023/11/19 00:08:24;;;;;;;5.53;4.30;;;21.50;90.80;;;;;;5015866;28;20994;-65
2023/11/19 00:10:51;;;;;;;5.57;4.50;;;21.50;90.80;;;;;;5027778;28;20474;-68
2023/11/19 00:13:18;;;;;;;6.35;4.05;;;21.40;90.70;;;;;;5025098;28;21028;-67
2023/11/19 00:15:47;;;;;;;5.17;4.40;;;21.40;90.70;;;;;;5020936;28;20215;-65
2023/11/19 00:18:14;;;;;;;5.55;4.68;;;21.40;90.70;;;;;;5025674;28;20684;-69
2023/11/19 00:20:41;;;;;;;5.47;4.25;;;21.40;90.70;;;;;;5027293;28;20201;-68
2023/11/19 00:23:09;;;;;;;5.35;4.85;;;21.40;90.70;;;;;;5027593;28;20255;-69
2023/11/19 00:25:36;;;;;;;4.77;4.10;;;21.40;90.80;;;;;;5024561;28;20215;-69
2023/11/19 00:28:02;;;;;;;5.03;4.63;;;21.40;90.80;;;;;;5028977;28;20469;-69
2023/11/19 00:30:31;;;;;;;5.80;4.65;;;21.40;90.70;;;;;;5027809;28;20203;-68
2023/11/19 00:32:57;;;;;;;5.97;4.00;;;21.40;90.70;;;;;;5028380;28;20905;-67
2023/11/19 00:35:24;;;;;;;6.13;5.37;;;21.30;90.90;;;;;;5026562;28;20218;-69
2023/11/19 00:37:51;;;;;;;4.72;4.32;;;21.40;90.70;;;;;;5020123;28;20471;-69
2023/11/19 00:40:21;;;;;;;6.20;5.17;;;21.40;90.70;;;;;;5023569;28;20201;-69
2023/11/19 00:42:48;;;;;;;4.95;4.25;;;21.30;90.70;;;;;;5026221;28;20535;-69
2023/11/19 00:45:15;;;;;;;5.90;5.30;;;21.40;90.80;;;;;;5024067;28;20192;-69
2023/11/19 00:47:42;;;;;;;4.10;3.80;;;21.30;90.60;;;;;;5026818;28;20210;-68
2023/11/19 00:50:11;;;;;;;4.63;4.22;;;21.30;90.70;;;;;;5025099;28;20466;-67
2023/11/19 00:52:38;;;;;;;4.20;3.80;;;21.30;90.70;;;;;;5023179;28;20311;-67
2023/11/19 00:55:06;;;;;;;3.97;3.58;;;21.30;90.70;;;;;;5023056;28;20684;-70
2023/11/19 00:57:35;;;;;;;3.97;3.57;;;21.30;90.70;;;;;;5026161;28;20580;-69
2023/11/19 01:00:02;;;;;;;5.13;4.65;;;21.30;90.70;;;;;;5026676;28;20457;-68
2023/11/19 01:02:29;;;;;;;5.03;4.10;;;21.30;90.70;;;;;;5022343;28;20756;-68
2023/11/19 01:04:56;;;;;;;5.05;3.92;;;21.30;90.70;;;;;;5025752;28;20206;-67
2023/11/19 01:07:24;;;;;;;4.95;4.55;;;21.30;90.70;;;;;;5023517;28;20841;-69
2023/11/19 01:09:51;;;;;;;4.32;3.92;;;21.30;90.70;;;;;;5027593;28;20284;-70
2023/11/19 01:12:18;;;;;;;5.00;4.38;;;21.30;90.70;;;;;;5029784;28;20273;-67
2023/11/19 01:14:46;;;;;;;5.13;4.00;;;21.30;90.70;;;;;;5024512;28;20210;-69
2023/11/19 01:17:12;;;;;;;5.13;3.80;;;21.30;90.70;;;;;;5021581;28;20831;-68
2023/11/19 01:19:39;;;;;;;4.13;3.70;;;21.20;90.70;;;;;;5025231;28;20465;-66
2023/11/19 01:22:06;;;;;;;4.50;3.60;;;21.30;90.70;;;;;;5019251;28;20454;-67
2023/11/19 01:24:33;;;;;;;5.10;3.70;;;21.20;90.70;;;;;;5018664;28;20214;-68
2023/11/19 01:27:00;;;;;;;4.30;3.90;;;21.30;90.70;;;;;;5018740;28;20862;-68
2023/11/19 01:29:27;;;;;;;5.27;4.53;;;21.30;90.70;;;;;;5019855;28;20690;-70
2023/11/19 01:31:55;;;;;;;3.90;3.60;;;21.20;90.70;;;;;;5020981;28;20477;-68
2023/11/19 01:34:22;;;;;;;4.60;4.13;;;21.20;90.70;;;;;;5019106;28;20462;-66
2023/11/19 01:36:49;;;;;;;4.40;4.00;;;21.20;90.70;;;;;;5025233;28;20233;-68
2023/11/19 01:39:17;;;;;;;5.00;3.80;;;21.20;90.60;;;;;;5024404;28;20468;-67
2023/11/19 01:41:43;;;;;;;3.67;3.37;;;21.20;90.70;;;;;;5020624;28;20490;-66
2023/11/19 01:44:12;;;;;;;4.00;3.60;;;21.20;90.60;;;;;;5022473;28;20469;-68
2023/11/19 01:46:41;;;;;;;4.00;3.47;;;21.20;90.60;;;;;;5021351;28;20493;-69
2023/11/19 01:49:09;;;;;;;5.22;4.32;;;21.20;90.60;;;;;;5015940;28;20210;-69
2023/11/19 01:51:36;;;;;;;3.73;3.43;;;21.20;90.60;;;;;;5020393;28;20274;-68
2023/11/19 01:54:03;;;;;;;4.95;3.72;;;21.20;90.60;;;;;;5017638;28;20463;-68
2023/11/19 01:56:32;;;;;;;4.63;4.22;;;21.20;90.70;;;;;;5023049;28;20227;-69
2023/11/19 01:59:00;;;;;;;3.77;3.47;;;21.10;90.70;;;;;;5023060;28;20677;-68
2023/11/19 02:01:27;;;;;;;4.80;4.40;;;21.20;90.70;;;;;;5020910;28;20468;-67
2023/11/19 02:03:54;;;;;;;3.80;3.50;;;21.10;90.70;;;;;;5016845;28;20210;-66
2023/11/19 02:06:22;;;;;;;3.60;3.30;;;21.10;90.70;;;;;;5021820;28;21006;-67
2023/11/19 02:08:49;;;;;;;4.75;4.35;;;21.10;90.70;;;;;;5024997;28;20210;-69
2023/11/19 02:11:15;;;;;;;3.80;3.53;;;21.10;90.70;;;;;;5020546;28;20195;-69
2023/11/19 02:13:44;;;;;;;4.38;4.00;;;21.10;90.70;;;;;;5024979;28;20204;-67
2023/11/19 02:16:11;;;;;;;4.78;3.72;;;21.10;90.70;;;;;;5018792;28;20222;-67
2023/11/19 02:18:38;;;;;;;4.75;3.20;;;21.10;90.70;;;;;;5025850;28;20203;-69
2023/11/19 02:21:06;;;;;;;6.90;4.00;;;21.10;90.70;;;;;;5020919;28;21004;-68
2023/11/19 02:23:34;;;;;;;4.47;3.22;;;21.10;90.70;;;;;;5017211;28;20196;-68
2023/11/19 02:26:10;;;;;;;3.47;3.25;;;21.10;91.00;;;;;;5017767;28;20207;-68
2023/11/19 02:28:39;;;;;;;4.35;3.80;;;21.10;90.70;;;;;;5026327;28;20211;-67
2023/11/19 02:31:09;;;;;;;4.65;4.03;;;21.00;90.70;;;;;;5026708;28;20210;-69
2023/11/19 02:33:36;;;;;;;4.53;4.13;;;21.00;90.70;;;;;;5028951;28;20195;-66
2023/11/19 02:36:03;;;;;;;3.50;3.05;;;21.00;90.70;;;;;;5027250;28;20227;-67
2023/11/19 02:38:30;;;;;;;4.30;3.22;;;21.00;90.70;;;;;;5026654;28;20199;-66
2023/11/19 02:40:57;;;;;;;3.35;3.15;;;21.00;90.80;;;;;;5026396;28;20736;-68
2023/11/19 02:43:24;;;;;;;3.72;3.38;;;21.00;90.70;;;;;;5028809;28;20210;-68
2023/11/19 02:45:53;;;;;;;3.45;2.92;;;21.00;90.70;;;;;;5026664;28;20310;-67
2023/11/19 02:48:20;;;;;;;4.05;3.38;;;21.00;90.70;;;;;;5029132;28;20268;-68
2023/11/19 02:50:48;;;;;;;4.93;3.83;;;21.00;90.80;;;;;;5028161;28;20227;-67
2023/11/19 02:53:16;;;;;;;4.38;3.95;;;21.00;90.70;;;;;;5027590;28;20203;-67
2023/11/19 02:55:49;;;;;;;4.35;3.60;;;21.00;90.70;;;;;;5027351;28;20224;-66
2023/11/19 02:58:23;;;;;;;4.35;3.67;;;21.00;90.70;;;;;;5026114;28;20193;-67
2023/11/19 03:00:56;;;;;;;3.20;2.90;;;21.00;90.70;;;;;;5029621;28;20199;-69
2023/11/19 03:03:28;;;;;;;3.70;3.40;;;21.00;90.70;;;;;;5026326;28;20516;-69
2023/11/19 03:05:55;;;;;;;3.40;3.10;;;21.00;90.70;;;;;;5025282;28;20285;-67
2023/11/19 03:08:22;;;;;;;3.20;3.00;;;21.00;90.70;;;;;;5028362;28;20273;-68
2023/11/19 03:10:49;;;;;;;3.50;3.20;;;21.00;90.70;;;;;;5027652;28;20588;-67
2023/11/19 03:13:16;;;;;;;3.83;3.22;;;21.00;90.70;;;;;;5030954;28;20205;-66
2023/11/19 03:15:43;;;;;;;3.42;3.20;;;20.90;90.70;;;;;;5023726;28;20234;-66
2023/11/19 03:18:11;;;;;;;4.15;3.05;;;20.90;90.80;;;;;;5021970;28;20188;-66
2023/11/19 03:20:38;;;;;;;3.33;3.13;;;20.90;91.10;;;;;;5024897;28;20210;-69
2023/11/19 03:23:05;;;;;;;5.05;3.20;;;20.90;90.80;;;;;;5023900;28;20199;-69
2023/11/19 03:25:34;;;;;;;3.50;3.20;;;20.90;90.80;;;;;;5031213;28;20223;-69
2023/11/19 03:28:02;;;;;;;3.47;3.13;;;20.90;90.80;;;;;;5026111;28;20199;-68
2023/11/19 03:30:29;;;;;;;3.80;3.50;;;20.90;90.80;;;;;;5031326;28;20199;-68
2023/11/19 03:32:55;;;;;;;3.53;3.22;;;20.90;90.80;;;;;;5028206;28;20233;-68
2023/11/19 03:35:24;;;;;;;3.63;3.08;;;20.90;90.80;;;;;;5012165;28;20210;-68
2023/11/19 03:37:51;;;;;;;3.40;3.10;;;20.90;90.80;;;;;;5026820;28;20222;-69
2023/11/19 03:40:18;;;;;;;2.75;2.55;;;20.90;90.70;;;;;;5027565;28;20202;-68
2023/11/19 03:42:45;;;;;;;3.35;3.05;;;20.90;90.80;;;;;;5026782;28;20276;-68
2023/11/19 03:45:12;;;;;;;3.60;3.30;;;20.90;90.80;;;;;;5024167;28;20203;-69
2023/11/19 03:47:39;;;;;;;3.20;3.00;;;20.90;90.80;;;;;;5024879;28;20203;-69
2023/11/19 03:50:08;;;;;;;3.80;3.50;;;20.90;90.80;;;;;;5014884;28;20199;-68
2023/11/19 03:52:36;;;;;;;3.50;3.13;;;20.80;90.70;;;;;;5018677;28;20204;-69
2023/11/19 03:55:03;;;;;;;3.53;2.95;;;20.80;90.70;;;;;;5022181;28;22028;-66
2023/11/19 03:57:29;;;;;;;3.10;2.83;;;20.80;90.70;;;;;;5022725;28;20306;-66
2023/11/19 03:59:58;;;;;;;3.08;2.85;;;20.80;90.80;;;;;;5024855;28;20655;-69
2023/11/19 04:02:27;;;;;;;4.57;3.03;;;20.80;90.80;;;;;;5028428;28;20717;-69
2023/11/19 04:04:54;;;;;;;2.80;2.60;;;20.80;90.80;;;;;;5024401;28;20203;-66
2023/11/19 04:07:21;;;;;;;3.53;3.22;;;20.80;90.80;;;;;;5021990;28;20203;-67
2023/11/19 04:09:49;;;;;;;3.03;2.83;;;20.80;90.90;;;;;;5030034;28;20212;-66
2023/11/19 04:12:16;;;;;;;3.70;3.40;;;20.80;90.90;;;;;;5027911;28;20187;-69
2023/11/19 04:14:42;;;;;;;3.25;3.05;;;20.80;90.90;;;;;;5029763;28;20196;-69
2023/11/19 04:17:09;;;;;;;2.58;2.38;;;20.80;90.80;;;;;;5022032;28;20239;-66
2023/11/19 04:19:37;;;;;;;3.08;2.85;;;20.80;90.80;;;;;;5024405;28;20219;-67
2023/11/19 04:22:04;;;;;;;3.28;3.03;;;20.70;90.80;;;;;;5021435;28;20209;-67
2023/11/19 04:24:31;;;;;;;3.20;2.90;;;20.80;90.80;;;;;;5025112;28;20202;-67
2023/11/19 04:26:59;;;;;;;3.22;2.90;;;20.80;90.80;;;;;;5027056;28;20210;-65
2023/11/19 04:29:26;;;;;;;4.22;3.63;;;20.70;90.80;;;;;;5024979;28;20188;-66
2023/11/19 04:31:52;;;;;;;2.75;2.55;;;20.70;90.80;;;;;;5021381;28;20199;-69
2023/11/19 04:34:19;;;;;;;3.35;2.70;;;20.70;90.80;;;;;;5026763;28;20192;-65
2023/11/19 04:36:46;;;;;;;2.97;2.78;;;20.70;90.80;;;;;;5021711;28;20222;-68
2023/11/19 04:39:15;;;;;;;4.13;2.92;;;20.70;90.80;;;;;;5027300;28;20191;-69
2023/11/19 04:41:47;;;;;;;3.83;2.88;;;20.70;90.90;;;;;;5026019;28;20197;-68
2023/11/19 04:44:16;;;;;;;2.70;2.50;;;20.70;91.00;;;;;;5022769;28;20277;-68
2023/11/19 04:46:43;;;;;;;3.22;2.90;;;20.70;90.90;;;;;;5023136;28;20211;-69
2023/11/19 04:49:11;;;;;;;2.85;2.65;;;20.70;91.00;;;;;;5025333;28;20203;-67
2023/11/19 04:51:40;;;;;;;3.20;3.00;;;20.70;91.00;;;;;;5022459;28;20227;-66
2023/11/19 04:54:08;;;;;;;3.60;3.33;;;20.70;91.00;;;;;;5026755;28;20682;-68
2023/11/19 04:56:35;;;;;;;2.75;2.55;;;20.70;90.90;;;;;;5022235;28;20223;-67
2023/11/19 04:59:02;;;;;;;3.30;2.72;;;20.70;90.90;;;;;;5022055;28;20214;-66
2023/11/19 05:01:30;;;;;;;3.95;3.00;;;20.70;90.90;;;;;;5020835;28;20234;-68
2023/11/19 05:03:59;;;;;;;2.85;2.65;;;20.70;91.00;;;;;;5024627;28;20199;-67
2023/11/19 05:06:28;;;;;;;3.58;3.25;;;20.60;90.80;;;;;;5017863;28;20215;-65
2023/11/19 05:08:54;;;;;;;3.25;2.95;;;20.60;90.80;;;;;;5026469;28;20240;-67
2023/11/19 05:11:21;;;;;;;3.30;3.00;;;20.70;90.90;;;;;;5021624;28;20214;-66
2023/11/19 05:13:48;;;;;;;2.78;2.58;;;20.70;90.90;;;;;;5024354;28;20210;-69
2023/11/19 05:16:15;;;;;;;4.03;2.90;;;20.70;91.00;;;;;;5023322;28;20197;-68
2023/11/19 05:18:43;;;;;;;2.97;2.65;;;20.60;90.90;;;;;;5019998;28;20568;-65
2023/11/19 05:21:10;;;;;;;3.50;2.65;;;20.70;91.00;;;;;;5027028;28;20222;-66
2023/11/19 05:23:36;;;;;;;3.03;2.67;;;20.60;90.90;;;;;;5027269;28;20214;-69
2023/11/19 05:26:04;;;;;;;2.88;2.58;;;20.60;90.90;;;;;;5026848;28;20222;-68
2023/11/19 05:28:30;;;;;;;3.78;3.42;;;20.60;90.90;;;;;;5027665;28;20294;-68
2023/11/19 05:30:58;;;;;;;2.95;2.75;;;20.60;91.00;;;;;;5028130;28;20195;-67
2023/11/19 05:33:24;;;;;;;3.42;2.28;;;20.60;90.90;;;;;;5028038;28;20195;-68
2023/11/19 05:35:52;;;;;;;3.35;2.50;;;20.60;91.00;;;;;;5034204;28;20198;-68
2023/11/19 05:38:20;;;;;;;3.75;3.03;;;20.60;90.90;;;;;;5024586;28;20227;-69
2023/11/19 05:40:49;;;;;;;2.70;2.50;;;20.60;91.00;;;;;;5023459;28;20694;-68
2023/11/19 05:43:16;;;;;;;3.40;3.10;;;20.60;91.00;;;;;;5025865;28;20215;-68
2023/11/19 05:45:43;;;;;;;3.40;3.10;;;20.60;90.90;;;;;;5020237;28;20203;-68
2023/11/19 05:48:10;;;;;;;2.90;2.70;;;20.60;90.90;;;;;;5017060;28;20918;-69
2023/11/19 05:50:37;;;;;;;3.40;3.10;;;20.60;90.90;;;;;;5022657;28;20286;-68
2023/11/19 05:53:08;;;;;;;2.72;2.53;;;20.60;90.90;;;;;;5022395;28;20206;-69
2023/11/19 05:55:35;;;;;;;2.28;2.17;;;20.60;90.90;;;;;;5020907;28;20191;-68
2023/11/19 05:58:03;;;;;;;3.13;2.50;;;20.60;91.30;;;;;;5021174;28;20311;-68
2023/11/19 06:00:30;;;;;;;3.10;2.80;;;20.60;90.90;;;;;;5023735;28;20197;-68
2023/11/19 06:02:57;;;;;;;2.47;2.28;;;20.60;91.00;;;;;;5017449;28;20195;-69
2023/11/19 06:05:24;;;;;;;2.65;2.45;;;20.60;91.00;;;;;;5025041;28;20210;-67
2023/11/19 06:07:51;;;;;;;2.70;2.50;;;20.60;91.00;;;;;;5029937;28;21016;-66
2023/11/19 06:10:20;;;;;;;3.15;2.90;;;20.50;91.00;;;;;;5028755;28;20196;-69
2023/11/19 06:12:47;;;;;;;3.88;2.40;;;20.50;91.00;;;;;;5027967;28;20596;-69
2023/11/19 06:15:14;;;;;;;3.20;2.90;;;20.60;91.00;;;;;;5029569;28;20196;-69
2023/11/19 06:17:41;;;;;;;3.65;2.25;;;20.50;91.00;;;;;;5026262;28;20219;-66
2023/11/19 06:20:11;;;;;;;3.58;2.60;;;20.50;91.00;;;;;;5019580;28;20533;-67
2023/11/19 06:22:38;;;;;;;2.42;2.30;;;20.50;91.00;;;;;;5033939;28;20195;-68
2023/11/19 06:25:07;;;;;;;2.90;2.45;;;20.50;90.90;;;;;;5033356;28;20567;-65
2023/11/19 06:27:35;;;;;;;3.60;2.72;;;20.50;90.90;;;;;;5033910;28;20644;-69
2023/11/19 06:30:02;;;;;;;2.35;1.70;;;20.50;90.90;;;;;;5025715;28;20195;-67
2023/11/19 06:32:29;;;;;;;2.50;2.30;;;20.50;91.30;;;;;;5032081;28;20223;-66
2023/11/19 06:34:56;;;;;;;2.42;2.22;;;20.50;90.90;;;;;;5025648;28;20192;-67
2023/11/19 06:37:23;;;;;;;2.85;2.65;;;20.50;91.00;;;;;;5024298;28;20227;-66
2023/11/19 06:39:50;;;;;;;2.80;2.50;;;20.50;91.00;;;;;;5027376;28;20660;-69
2023/11/19 06:42:17;;;;;;;2.35;2.20;;;20.50;91.00;;;;;;5028482;28;20740;-68
2023/11/19 06:44:45;;;;;;;2.80;2.60;;;20.50;91.00;;;;;;5030129;28;20747;-69
2023/11/19 06:47:12;;;;;;;3.03;2.72;;;20.50;91.10;;;;;;5029076;28;20809;-68
2023/11/19 06:49:38;;;;;;;2.38;2.17;;;20.50;91.10;;;;;;5029728;28;20195;-66
2023/11/19 06:52:05;;;;;;;2.85;2.65;;;20.50;91.10;;;;;;5025599;28;20198;-69
2023/11/19 06:54:33;;;;;;;2.63;2.40;;;20.40;91.00;;;;;;5028280;28;20195;-69
2023/11/19 06:56:59;;;;;;;2.30;2.10;;;20.50;91.00;;;;;;5025411;28;20225;-69
2023/11/19 06:59:26;;;;;;;2.58;2.38;;;20.50;91.10;;;;;;5027300;28;20578;-69
2023/11/19 07:01:54;;;;;;;2.63;2.25;;;20.50;91.00;;;;;;5025661;28;20196;-68
2023/11/19 07:04:21;;;;;;;3.03;2.83;;;20.50;91.10;;;;;;5027109;28;20660;-66
2023/11/19 07:06:48;;;;;;;2.72;2.53;;;20.40;91.00;;;;;;5026761;28;20970;-69
2023/11/19 07:09:15;;;;;;;2.58;2.38;;;20.50;91.00;;;;;;5026314;28;20207;-69
2023/11/19 07:11:44;;;;;;;2.55;2.35;;;20.40;91.00;;;;;;5020777;28;20199;-64
2023/11/19 07:14:11;;;;;;;2.70;2.50;;;20.40;91.10;;;;;;5027587;28;20282;-64
2023/11/19 07:16:38;;;;;;;3.22;2.97;;;20.40;91.10;;;;;;5025339;28;20201;-64
2023/11/19 07:19:07;;;;;;;5.35;2.58;;;20.40;91.10;;;;;;5027324;28;20206;-64
2023/11/19 07:21:34;;;;;;;2.80;2.60;;;20.40;91.00;;;;;;5028908;28;20199;-64
2023/11/19 07:24:01;;;;;;;2.50;2.30;;;20.40;91.00;;;;;;5029959;28;20211;-64
2023/11/19 07:26:27;;;;;;;2.65;2.22;;;20.40;91.10;;;;;;5029618;28;20560;-64
2023/11/19 07:28:55;;;;;;;2.40;2.20;;;20.40;91.20;;;;;;5025341;28;20208;-64
2023/11/19 07:31:23;;;;;;;2.63;2.42;;;20.40;91.10;;;;;;5024742;28;20274;-64
2023/11/19 07:33:50;;;;;;;2.90;2.70;;;20.40;91.20;;;;;;5027802;28;20241;-64
2023/11/19 07:36:18;;;;;;;5.32;2.60;;;20.40;91.20;;;;;;5026039;28;20199;-63
2023/11/19 07:38:47;;;;;;;2.30;2.10;;;20.50;91.30;;;;;;5028396;28;20223;-64
2023/11/19 07:41:14;;;;;;;2.65;2.20;;;20.50;91.60;;;;;;5030632;28;20624;-64
2023/11/19 07:43:42;;;;;;;2.47;2.28;;;20.50;91.30;;;;;;5030145;28;20199;-68
2023/11/19 07:46:12;;;;;;;3.00;2.70;;;20.50;91.40;;;;;;5019704;28;20199;-69
2023/11/19 07:48:39;;;;;;;2.70;2.33;;;20.50;91.40;;;;;;5028339;28;20208;-68
2023/11/19 07:51:06;;;;;;;2.65;2.30;;;20.60;91.50;;;;;;5029075;28;20203;-66
2023/11/19 07:53:34;;;;;;;3.25;2.40;;;20.60;91.60;;;;;;5024841;28;20200;-70
2023/11/19 07:56:01;;;;;;;2.50;2.00;;;20.60;91.80;;;;;;5022087;28;20201;-67
2023/11/19 07:58:28;;;;;;;2.60;2.30;;;20.70;91.90;;;;;;5019628;28;20233;-72
2023/11/19 08:00:55;;;;;;;2.33;2.10;;;20.70;91.90;;;;;;5016190;28;20295;-72
2023/11/19 08:03:22;;;;;;;2.80;1.83;;;20.70;92.40;;;;;;5026623;28;20676;-74
2023/11/19 08:05:49;;;;;;;1.80;1.70;;;20.70;92.10;;;;;;5020932;28;20269;-73
2023/11/19 08:08:16;;;;;;;2.40;2.20;;;20.80;92.20;;;;;;5024727;28;20211;-73
2023/11/19 08:10:45;;;;;;;2.75;2.53;;;20.80;92.30;;;;;;5022434;28;20204;-75
2023/11/19 08:13:11;;;;;;;2.13;1.93;;;20.90;92.30;;;;;;5022646;28;20838;-74
2023/11/19 08:15:38;;;;;;;2.40;2.20;;;20.90;92.30;;;;;;5021871;28;21152;-70
2023/11/19 08:18:05;;;;;;;1.83;1.70;;;20.90;92.30;;;;;;5018571;28;20866;-72
2023/11/19 08:20:32;;;;;;;2.23;2.00;;;21.00;92.40;;;;;;5024806;28;21376;-69
2023/11/19 08:22:58;;;;;;;2.17;1.80;;;21.00;92.40;;;;;;5022513;28;20466;-77
2023/11/19 08:25:25;;;;;;;3.50;2.30;;;21.00;92.40;;;;;;5025448;28;20472;-72
2023/11/19 08:27:53;;;;;;;2.50;1.90;;;21.10;92.40;;;;;;5023146;28;20967;-64
2023/11/19 08:30:20;;;;;;;2.40;2.20;;;21.10;92.40;;;;;;5025034;28;20498;-68
2023/11/19 08:32:47;;;;;;;2.53;2.00;;;21.20;92.40;;;;;;5025979;28;20465;-64
2023/11/19 08:35:15;;;;;;;2.10;1.90;;;21.20;92.40;;;;;;5025597;28;20464;-62
2023/11/19 08:37:43;;;;;;;2.27;2.07;;;21.20;92.50;;;;;;5015753;28;21190;-65
2023/11/19 08:40:10;;;;;;;2.90;2.60;;;21.30;92.50;;;;;;5004995;28;20458;-65
2023/11/19 08:42:39;;;;;;;2.87;2.17;;;21.30;92.50;;;;;;5022819;28;20477;-64
2023/11/19 08:45:09;;;;;;;2.30;2.10;;;21.30;92.50;;;;;;5025722;28;21028;-68
2023/11/19 08:47:36;;;;;;;2.00;1.80;;;21.30;92.50;;;;;;5019003;28;20488;-67
2023/11/19 08:50:04;;;;;;;3.57;1.87;;;21.40;92.50;;;;;;5019988;28;20468;-67
2023/11/19 08:52:30;;;;;;;2.23;1.70;;;21.40;92.40;;;;;;5019642;28;20539;-72
2023/11/19 08:54:57;;;;;;;2.90;1.77;;;21.40;92.20;;;;;;5021302;28;20501;-71
2023/11/19 08:57:24;;;;;;;2.33;1.97;;;21.40;92.30;;;;;;5022631;28;20897;-67
2023/11/19 08:59:51;;;;;;;2.10;1.90;;;21.50;92.40;;;;;;5024214;28;20472;-69
2023/11/19 09:02:19;;;;;;;2.20;1.83;;;21.50;92.40;;;;;;5020004;28;20583;-72
2023/11/19 09:04:46;;;;;;;2.23;2.03;;;21.50;92.40;;;;;;5024453;28;20881;-69
2023/11/19 09:07:12;;;;;;;2.43;1.67;;;21.50;92.40;;;;;;5016060;28;20469;-68
2023/11/19 09:09:40;;;;;;;2.03;1.80;;;21.60;92.50;;;;;;5025621;28;20469;-70
2023/11/19 09:12:07;;;;;;;2.20;1.77;;;21.60;92.50;;;;;;5023580;28;20547;-72
2023/11/19 09:14:34;;;;;;;1.87;1.77;;;21.60;92.40;;;;;;5023697;28;20462;-73
2023/11/19 09:17:01;;;;;;;2.20;2.00;;;21.60;92.40;;;;;;5017879;28;20469;-71
2023/11/19 09:19:29;;;;;;;2.00;1.80;;;21.70;92.40;;;;;;5027884;28;20926;-69
2023/11/19 09:21:56;;;;;;;2.47;2.23;;;21.70;92.30;;;;;;5021263;28;20453;-73
2023/11/19 09:24:23;;;;;;;2.20;1.60;;;21.70;92.30;;;;;;5027698;28;20459;-66
2023/11/19 09:26:49;;;;;;;4.00;2.33;;;21.70;92.20;;;;;;5024405;28;20468;-68
2023/11/19 09:29:16;;;;;;;5.50;2.80;;;21.70;92.10;;;;;;5028506;28;20476;-68
2023/11/19 09:31:43;;;;;;;7.70;3.20;;;21.70;91.00;;;;;;5022075;28;20465;-71
2023/11/19 09:34:10;;;;;;;9.00;4.30;;;21.60;90.20;;;;;;5030013;28;20461;-68
2023/11/19 09:36:38;;;;;;;11.40;3.63;;;21.50;89.40;;;;;;5021150;28;20461;-72
2023/11/19 09:39:07;;;;;;;12.70;3.80;;;21.50;88.10;;;;;;5023256;28;20491;-71
2023/11/19 09:41:34;;;;;;;18.50;4.17;;;21.50;87.80;;;;;;5037195;28;20465;-68
2023/11/19 09:44:01;;;;;;;13.70;3.90;;;21.40;87.10;;;;;;5032350;28;20635;-71
2023/11/19 09:46:29;;;;;;;13.70;3.93;;;21.40;85.90;;;;;;5027871;28;20465;-71
2023/11/19 09:48:59;;;;;;;12.23;4.00;;;21.30;86.30;;;;;;5027970;28;20850;-68
2023/11/19 09:51:26;;;;;;;13.83;3.50;;;21.30;85.10;;;;;;5028023;28;20482;-68
2023/11/19 09:53:54;;;;;;;14.17;4.60;;;21.30;84.60;;;;;;5028300;28;20491;-72
2023/11/19 09:56:22;;;;;;;18.47;4.40;;;21.30;84.20;;;;;;5024854;28;20469;-69
2023/11/19 09:58:48;;;;;;;15.70;6.50;;;21.20;83.70;;;;;;5025615;28;21012;-67
2023/11/19 10:01:15;;;;;;;15.53;3.90;;;21.20;83.80;;;;;;5029003;28;20893;-68
2023/11/19 10:03:43;;;;;;;15.57;5.30;;;21.10;83.10;;;;;;5028607;28;20563;-69
2023/11/19 10:06:11;;;;;;;16.67;4.50;;;21.10;83.90;;;;;;5023959;28;20476;-68
2023/11/19 10:08:39;;;;;;;13.80;4.40;;;21.10;84.00;;;;;;5024127;28;20924;-66
2023/11/19 10:11:07;;;;;;;12.03;4.80;;;21.10;83.90;;;;;;5027033;28;21030;-72
2023/11/19 10:13:37;;;;;;;17.93;5.47;;;21.00;82.90;;;;;;5024293;28;20454;-67
2023/11/19 10:16:09;;;;;;;18.38;4.82;;;21.00;83.00;;;;;;5024632;28;20478;-71
2023/11/19 10:18:37;;;;;;;16.42;4.80;;;21.00;82.90;;;;;;5022299;28;20222;-68
2023/11/19 10:21:05;;;;;;;18.83;5.20;;;21.00;82.90;;;;;;5028313;28;20199;-66
2023/11/19 10:23:32;;;;;;;13.55;5.20;;;21.00;83.10;;;;;;5025049;28;20263;-67
2023/11/19 10:26:06;;;;;;;18.70;4.97;;;20.90;82.50;;;;;;5026084;28;20192;-60
2023/11/19 10:28:43;;;;;;;22.30;4.57;;;20.90;81.90;;;;;;5012177;28;20200;-61
2023/11/19 10:31:09;;;;;;;12.48;4.00;;;20.80;82.90;;;;;;5022363;28;20236;-60
2023/11/19 10:33:36;;;;;;;9.02;3.22;;;20.90;84.00;;;;;;5020517;28;20204;-65
2023/11/19 10:36:03;;;;;;;13.55;4.07;;;21.00;86.00;;;;;;5017816;28;20199;-70
2023/11/19 10:38:30;;;;;;;9.20;3.83;;;21.00;86.30;;;;;;5020960;28;20222;-66
2023/11/19 10:40:57;;;;;;;8.05;3.40;;;21.10;86.90;;;;;;5028432;28;21163;-66
2023/11/19 10:43:25;;;;;;;11.00;3.55;;;21.10;87.20;;;;;;5024376;28;20318;-67
2023/11/19 10:45:53;;;;;;;10.77;4.10;;;21.10;87.40;;;;;;5016946;28;20206;-67
2023/11/19 10:48:21;;;;;;;8.47;3.63;;;21.10;87.60;;;;;;5022189;28;20469;-66
2023/11/19 10:50:54;;;;;;;12.30;3.63;;;21.20;87.90;;;;;;5024613;28;20957;-66
2023/11/19 10:53:21;;;;;;;9.73;3.30;;;21.20;88.60;;;;;;5020410;28;20199;-66
2023/11/19 10:55:49;;;;;;;6.20;2.90;;;21.20;88.00;;;;;;5026239;28;20196;-76
2023/11/19 10:58:17;;;;;;;9.37;3.00;;;21.20;88.10;;;;;;5021304;28;20488;-73
2023/11/19 11:00:46;;;;;;;7.73;3.10;;;21.20;88.20;;;;;;5027065;28;20460;-75
2023/11/19 11:03:18;;;;;;;6.10;2.80;;;21.20;88.70;;;;;;5028379;28;20478;-73
2023/11/19 11:05:48;;;;;;;6.87;2.60;;;21.20;89.10;;;;;;5021342;28;20553;-74
2023/11/19 11:08:15;;;;;;;6.32;2.28;;;21.20;89.40;;;;;;5028427;28;20530;-71
2023/11/19 11:10:45;;;;;;;8.40;3.30;;;21.20;89.70;;;;;;5027740;28;20205;-65
2023/11/19 11:13:14;;;;;;;6.17;2.73;;;21.30;90.10;;;;;;5025436;28;20469;-69
2023/11/19 11:15:42;;;;;;;5.65;2.65;;;21.30;90.20;;;;;;5024799;28;20492;-70
2023/11/19 11:18:10;;;;;;;7.30;3.90;;;21.30;90.30;;;;;;5025152;28;20200;-69
2023/11/19 11:20:38;;;;;;;4.97;2.27;;;21.40;90.50;;;;;;5030219;28;20465;-66
2023/11/19 11:23:37;;;;;;;5.50;2.50;;;21.30;90.60;;;;;;5032824;28;20469;-64
2023/11/19 11:26:24;;;;;;;6.57;2.90;;;21.40;90.80;;;;;;4993199;28;20985;-67
2023/11/19 11:28:57;;;;;;;7.07;2.73;;;21.50;90.90;;;;;;5028320;28;20465;-67
2023/11/19 11:31:37;;;;;;;4.80;2.30;;;21.50;91.40;;;;;;5020827;28;20514;-67
2023/11/19 11:34:37;;;;;;;11.13;2.80;;;21.50;91.10;;;;;;5027250;28;20449;-71
2023/11/19 11:37:17;;;;;;;6.63;2.60;;;21.50;91.20;;;;;;5025985;28;20451;-70
2023/11/19 11:39:44;;;;;;;4.80;2.47;;;21.60;91.20;;;;;;5030277;28;21384;-65
2023/11/19 11:42:35;;;;;;;8.50;2.57;;;21.60;91.30;;;;;;5023122;28;21369;-64
2023/11/19 11:45:07;;;;;;;4.03;1.83;;;21.70;91.40;;;;;;5028500;28;20465;-66
2023/11/19 11:48:15;;;;;;;3.77;1.97;;;21.60;91.30;;;;;;5026132;28;20466;-63
2023/11/19 11:50:54;;;;;;;8.03;2.20;;;21.70;91.40;;;;;;5021726;28;21017;-69
2023/11/19 11:53:24;;;;;;;3.90;2.07;;;21.70;91.50;;;;;;5029774;28;20476;-77
2023/11/19 11:55:58;;;;;;;4.50;2.13;;;21.70;91.50;;;;;;5029729;28;20508;-72
2023/11/19 11:58:32;;;;;;;3.20;1.83;;;21.70;91.50;;;;;;5023699;28;20611;-75
2023/11/19 12:01:00;;;;;;;4.53;2.53;;;21.70;91.60;;;;;;5025934;28;20500;-73
2023/11/19 12:03:29;;;;;;;3.40;1.90;;;21.70;91.60;;;;;;5025455;28;20461;-73
2023/11/19 12:05:56;;;;;;;4.97;2.17;;;21.70;91.60;;;;;;5024857;28;20468;-72
2023/11/19 12:08:28;;;;;;;4.77;2.50;;;21.80;91.70;;;;;;5028271;28;20461;-65
2023/11/19 12:10:58;;;;;;;5.17;2.27;;;21.80;91.70;;;;;;5027341;28;20469;-66
2023/11/19 12:13:30;;;;;;;5.30;2.47;;;21.80;91.70;;;;;;5023754;28;20528;-68
2023/11/19 12:16:09;;;;;;;6.10;2.23;;;21.80;91.80;;;;;;5022536;28;20465;-69
2023/11/19 12:18:36;;;;;;;4.50;1.87;;;21.80;91.70;;;;;;5017629;28;20484;-67
2023/11/19 12:21:05;;;;;;;3.80;2.07;;;21.80;91.70;;;;;;5019016;28;20466;-72
2023/11/19 12:23:34;;;;;;;2.77;1.70;;;21.80;91.80;;;;;;5025016;28;20477;-70
2023/11/19 12:26:00;;;;;;;3.53;2.23;;;21.80;91.80;;;;;;5019703;28;20464;-66
2023/11/19 12:28:27;;;;;;;2.53;1.70;;;21.80;91.80;;;;;;5028809;28;20463;-67
2023/11/19 12:30:54;;;;;;;3.90;1.47;;;21.80;91.80;;;;;;5023574;28;20458;-64
2023/11/19 12:33:21;;;;;;;2.77;1.60;;;21.90;91.90;;;;;;5019587;28;20460;-62
2023/11/19 12:35:49;;;;;;;4.67;2.10;;;21.90;91.90;;;;;;5022382;28;20469;-62
2023/11/19 12:38:22;;;;;;;4.90;2.13;;;21.90;91.90;;;;;;5025732;28;20465;-62
2023/11/19 12:41:03;;;;;;;3.10;1.60;;;21.90;92.00;;;;;;5021849;28;20524;-63
2023/11/19 12:43:30;;;;;;;3.50;2.00;;;22.00;92.00;;;;;;5020282;28;20571;-68
2023/11/19 12:45:57;;;;;;;4.43;1.80;;;21.90;91.90;;;;;;5021374;28;21053;-69
2023/11/19 12:48:24;;;;;;;5.03;2.20;;;22.00;92.00;;;;;;5017905;28;20453;-69
2023/11/19 12:50:54;;;;;;;3.30;1.60;;;22.00;92.00;;;;;;5023402;28;21322;-68